sensor_id;sensor_type;location;lat;lon;timestamp;P1;durP1;ratioP1;P2;durP2;ratioP2
45466;SDS011;31212;49.734;8.490;2022-08-20T00:00:03;8.90;;;2.72;;
45466;SDS011;31212;49.734;8.490;2022-08-20T00:02:36;4.05;;;2.13;;
45466;SDS011;31212;49.734;8.490;2022-08-20T00:05:05;3.75;;;2.58;;
45466;SDS011;31212;49.734;8.490;2022-08-20T00:07:32;4.57;;;2.10;;
45466;SDS011;31212;49.734;8.490;2022-08-20T00:09:59;4.88;;;2.30;;
45466;SDS011;31212;49.734;8.490;2022-08-20T00:12:25;4.28;;;2.22;;
45466;SDS011;31212;49.734;8.490;2022-08-20T00:14:52;2.17;;;1.70;;
45466;SDS011;31212;49.734;8.490;2022-08-20T00:17:18;4.88;;;2.20;;
45466;SDS011;31212;49.734;8.490;2022-08-20T00:19:45;5.32;;;2.47;;
45466;SDS011;31212;49.734;8.490;2022-08-20T00:22:13;5.07;;;2.20;;
45466;SDS011;31212;49.734;8.490;2022-08-20T00:24:39;3.80;;;2.10;;
45466;SDS011;31212;49.734;8.490;2022-08-20T00:27:06;5.35;;;2.55;;
45466;SDS011;31212;49.734;8.490;2022-08-20T00:29:32;4.18;;;2.20;;
45466;SDS011;31212;49.734;8.490;2022-08-20T00:31:59;2.15;;;1.73;;
45466;SDS011;31212;49.734;8.490;2022-08-20T00:34:26;3.80;;;2.40;;
45466;SDS011;31212;49.734;8.490;2022-08-20T00:36:52;3.33;;;2.03;;
45466;SDS011;31212;49.734;8.490;2022-08-20T00:39:20;3.97;;;2.22;;
45466;SDS011;31212;49.734;8.490;2022-08-20T00:41:47;5.18;;;2.50;;
45466;SDS011;31212;49.734;8.490;2022-08-20T00:44:14;4.22;;;2.22;;
45466;SDS011;31212;49.734;8.490;2022-08-20T00:46:43;4.43;;;2.53;;
45466;SDS011;31212;49.734;8.490;2022-08-20T00:49:13;6.28;;;2.70;;
45466;SDS011;31212;49.734;8.490;2022-08-20T00:51:45;3.70;;;1.88;;
45466;SDS011;31212;49.734;8.490;2022-08-20T00:54:17;3.38;;;1.67;;
45466;SDS011;31212;49.734;8.490;2022-08-20T00:56:48;3.90;;;1.52;;
45466;SDS011;31212;49.734;8.490;2022-08-20T00:59:18;2.43;;;1.27;;
45466;SDS011;31212;49.734;8.490;2022-08-20T01:01:49;2.10;;;1.38;;
45466;SDS011;31212;49.734;8.490;2022-08-20T01:04:16;3.60;;;1.55;;
45466;SDS011;31212;49.734;8.490;2022-08-20T01:06:43;5.97;;;2.10;;
45466;SDS011;31212;49.734;8.490;2022-08-20T01:09:11;2.63;;;1.58;;
45466;SDS011;31212;49.734;8.490;2022-08-20T01:11:38;2.42;;;1.42;;
45466;SDS011;31212;49.734;8.490;2022-08-20T01:14:11;3.85;;;1.75;;
45466;SDS011;31212;49.734;8.490;2022-08-20T01:16:57;1.67;;;1.30;;
45466;SDS011;31212;49.734;8.490;2022-08-20T01:19:27;5.32;;;2.30;;
45466;SDS011;31212;49.734;8.490;2022-08-20T01:21:56;3.25;;;1.80;;
45466;SDS011;31212;49.734;8.490;2022-08-20T01:24:26;2.80;;;1.80;;
45466;SDS011;31212;49.734;8.490;2022-08-20T01:26:57;2.73;;;1.90;;
45466;SDS011;31212;49.734;8.490;2022-08-20T01:29:29;3.47;;;1.35;;
45466;SDS011;31212;49.734;8.490;2022-08-20T01:32:03;2.70;;;1.48;;
45466;SDS011;31212;49.734;8.490;2022-08-20T01:34:31;3.25;;;1.70;;
45466;SDS011;31212;49.734;8.490;2022-08-20T01:36:58;1.88;;;1.25;;
45466;SDS011;31212;49.734;8.490;2022-08-20T01:39:26;2.13;;;1.30;;
45466;SDS011;31212;49.734;8.490;2022-08-20T01:41:58;3.33;;;1.73;;
45466;SDS011;31212;49.734;8.490;2022-08-20T01:44:31;2.65;;;1.65;;
45466;SDS011;31212;49.734;8.490;2022-08-20T01:47:06;2.35;;;1.58;;
45466;SDS011;31212;49.734;8.490;2022-08-20T01:49:38;3.40;;;2.03;;
45466;SDS011;31212;49.734;8.490;2022-08-20T01:52:08;3.05;;;1.88;;
45466;SDS011;31212;49.734;8.490;2022-08-20T01:54:37;2.83;;;1.92;;
45466;SDS011;31212;49.734;8.490;2022-08-20T01:57:09;2.72;;;2.00;;
45466;SDS011;31212;49.734;8.490;2022-08-20T01:59:38;2.97;;;2.10;;
45466;SDS011;31212;49.734;8.490;2022-08-20T02:02:06;4.32;;;2.00;;
45466;SDS011;31212;49.734;8.490;2022-08-20T02:04:33;2.70;;;1.88;;
45466;SDS011;31212;49.734;8.490;2022-08-20T02:07:01;3.92;;;1.63;;
45466;SDS011;31212;49.734;8.490;2022-08-20T02:09:30;2.10;;;1.63;;
45466;SDS011;31212;49.734;8.490;2022-08-20T02:11:58;2.85;;;1.77;;
45466;SDS011;31212;49.734;8.490;2022-08-20T02:14:28;3.15;;;1.58;;
45466;SDS011;31212;49.734;8.490;2022-08-20T02:16:55;2.35;;;1.95;;
45466;SDS011;31212;49.734;8.490;2022-08-20T02:19:25;3.00;;;1.67;;
45466;SDS011;31212;49.734;8.490;2022-08-20T02:21:57;2.05;;;1.30;;
45466;SDS011;31212;49.734;8.490;2022-08-20T02:24:26;1.80;;;1.20;;
45466;SDS011;31212;49.734;8.490;2022-08-20T02:26:54;1.80;;;1.33;;
45466;SDS011;31212;49.734;8.490;2022-08-20T02:29:21;1.92;;;1.33;;
45466;SDS011;31212;49.734;8.490;2022-08-20T02:31:49;4.97;;;1.65;;
45466;SDS011;31212;49.734;8.490;2022-08-20T02:34:15;2.22;;;1.48;;
45466;SDS011;31212;49.734;8.490;2022-08-20T02:36:42;4.45;;;2.35;;
45466;SDS011;31212;49.734;8.490;2022-08-20T02:39:10;5.20;;;1.80;;
45466;SDS011;31212;49.734;8.490;2022-08-20T02:41:38;2.95;;;1.90;;
45466;SDS011;31212;49.734;8.490;2022-08-20T02:44:05;2.88;;;1.90;;
45466;SDS011;31212;49.734;8.490;2022-08-20T02:46:32;4.72;;;2.20;;
45466;SDS011;31212;49.734;8.490;2022-08-20T02:49:01;4.40;;;2.15;;
45466;SDS011;31212;49.734;8.490;2022-08-20T02:51:28;3.25;;;2.15;;
45466;SDS011;31212;49.734;8.490;2022-08-20T02:53:55;3.72;;;2.28;;
45466;SDS011;31212;49.734;8.490;2022-08-20T02:56:21;2.45;;;1.60;;
45466;SDS011;31212;49.734;8.490;2022-08-20T02:58:48;4.13;;;1.70;;
45466;SDS011;31212;49.734;8.490;2022-08-20T03:01:15;5.10;;;1.90;;
45466;SDS011;31212;49.734;8.490;2022-08-20T03:03:43;2.92;;;1.63;;
45466;SDS011;31212;49.734;8.490;2022-08-20T03:06:11;2.55;;;1.40;;
45466;SDS011;31212;49.734;8.490;2022-08-20T05:42:48;1.33;;;0.65;;
45466;SDS011;31212;49.734;8.490;2022-08-20T05:45:16;1.17;;;0.68;;
45466;SDS011;31212;49.734;8.490;2022-08-20T05:47:43;0.95;;;0.50;;
45466;SDS011;31212;49.734;8.490;2022-08-20T05:50:11;1.45;;;0.85;;
45466;SDS011;31212;49.734;8.490;2022-08-20T05:52:42;4.35;;;0.90;;
45466;SDS011;31212;49.734;8.490;2022-08-20T05:55:10;1.00;;;0.77;;
45466;SDS011;31212;49.734;8.490;2022-08-20T05:57:39;0.85;;;0.70;;
45466;SDS011;31212;49.734;8.490;2022-08-20T06:00:09;2.15;;;0.70;;
45466;SDS011;31212;49.734;8.490;2022-08-20T06:02:38;1.20;;;0.90;;
45466;SDS011;31212;49.734;8.490;2022-08-20T06:05:23;0.63;;;0.60;;
45466;SDS011;31212;49.734;8.490;2022-08-20T06:07:51;0.70;;;0.70;;
45466;SDS011;31212;49.734;8.490;2022-08-20T06:10:17;0.55;;;0.55;;
45466;SDS011;31212;49.734;8.490;2022-08-20T06:12:44;0.70;;;0.70;;
45466;SDS011;31212;49.734;8.490;2022-08-20T06:15:12;1.48;;;0.70;;
45466;SDS011;31212;49.734;8.490;2022-08-20T06:17:39;1.50;;;1.10;;
45466;SDS011;31212;49.734;8.490;2022-08-20T06:20:06;0.85;;;0.70;;
45466;SDS011;31212;49.734;8.490;2022-08-20T06:22:34;1.80;;;1.52;;
45466;SDS011;31212;49.734;8.490;2022-08-20T06:25:02;1.20;;;0.77;;
45466;SDS011;31212;49.734;8.490;2022-08-20T06:27:30;0.63;;;0.63;;
45466;SDS011;31212;49.734;8.490;2022-08-20T06:29:57;0.90;;;0.60;;
45466;SDS011;31212;49.734;8.490;2022-08-20T06:32:25;1.75;;;0.73;;
45466;SDS011;31212;49.734;8.490;2022-08-20T06:34:51;2.03;;;0.95;;
45466;SDS011;31212;49.734;8.490;2022-08-20T06:37:19;1.02;;;0.77;;
45466;SDS011;31212;49.734;8.490;2022-08-20T06:39:48;1.38;;;0.88;;
45466;SDS011;31212;49.734;8.490;2022-08-20T06:42:15;0.95;;;0.82;;
45466;SDS011;31212;49.734;8.490;2022-08-20T06:44:42;1.00;;;0.90;;
45466;SDS011;31212;49.734;8.490;2022-08-20T06:47:14;1.08;;;0.70;;
45466;SDS011;31212;49.734;8.490;2022-08-20T06:49:43;1.17;;;0.70;;
45466;SDS011;31212;49.734;8.490;2022-08-20T06:52:10;1.05;;;0.70;;
45466;SDS011;31212;49.734;8.490;2022-08-20T06:54:36;1.13;;;0.90;;
45466;SDS011;31212;49.734;8.490;2022-08-20T06:57:03;0.47;;;0.47;;
45466;SDS011;31212;49.734;8.490;2022-08-20T06:59:30;0.73;;;0.60;;
45466;SDS011;31212;49.734;8.490;2022-08-20T07:01:56;0.60;;;0.60;;
45466;SDS011;31212;49.734;8.490;2022-08-20T07:04:23;1.02;;;0.77;;
45466;SDS011;31212;49.734;8.490;2022-08-20T07:06:52;1.33;;;0.77;;
45466;SDS011;31212;49.734;8.490;2022-08-20T07:09:19;1.20;;;0.82;;
45466;SDS011;31212;49.734;8.490;2022-08-20T07:11:46;1.60;;;1.00;;
45466;SDS011;31212;49.734;8.490;2022-08-20T07:14:13;1.52;;;0.77;;
45466;SDS011;31212;49.734;8.490;2022-08-20T07:16:40;2.17;;;0.98;;
45466;SDS011;31212;49.734;8.490;2022-08-20T07:19:07;1.17;;;0.75;;
45466;SDS011;31212;49.734;8.490;2022-08-20T07:21:34;0.88;;;0.50;;
45466;SDS011;31212;49.734;8.490;2022-08-20T07:24:03;1.45;;;0.60;;
45466;SDS011;31212;49.734;8.490;2022-08-20T07:26:29;1.02;;;0.90;;
45466;SDS011;31212;49.734;8.490;2022-08-20T07:28:56;1.63;;;1.00;;
45466;SDS011;31212;49.734;8.490;2022-08-20T07:31:22;0.95;;;0.68;;
45466;SDS011;31212;49.734;8.490;2022-08-20T07:34:07;1.00;;;0.90;;
45466;SDS011;31212;49.734;8.490;2022-08-20T07:36:35;0.80;;;0.63;;
45466;SDS011;31212;49.734;8.490;2022-08-20T07:39:03;0.73;;;0.70;;
45466;SDS011;31212;49.734;8.490;2022-08-20T07:41:30;0.40;;;0.40;;
45466;SDS011;31212;49.734;8.490;2022-08-20T07:43:57;1.98;;;0.95;;
45466;SDS011;31212;49.734;8.490;2022-08-20T07:46:23;0.70;;;0.70;;
45466;SDS011;31212;49.734;8.490;2022-08-20T07:48:50;1.65;;;1.55;;
45466;SDS011;31212;49.734;8.490;2022-08-20T07:51:17;1.10;;;0.90;;
45466;SDS011;31212;49.734;8.490;2022-08-20T07:53:47;1.75;;;0.82;;
45466;SDS011;31212;49.734;8.490;2022-08-20T07:56:16;0.88;;;0.55;;
45466;SDS011;31212;49.734;8.490;2022-08-20T07:58:46;1.40;;;0.75;;
45466;SDS011;31212;49.734;8.490;2022-08-20T08:01:14;2.60;;;0.95;;
45466;SDS011;31212;49.734;8.490;2022-08-20T08:03:42;1.55;;;1.10;;
45466;SDS011;31212;49.734;8.490;2022-08-20T08:06:08;0.88;;;0.60;;
45466;SDS011;31212;49.734;8.490;2022-08-20T08:08:35;1.52;;;0.70;;
45466;SDS011;31212;49.734;8.490;2022-08-20T08:11:03;0.85;;;0.85;;
45466;SDS011;31212;49.734;8.490;2022-08-20T08:13:33;1.05;;;0.85;;
45466;SDS011;31212;49.734;8.490;2022-08-20T08:16:02;1.23;;;0.82;;
45466;SDS011;31212;49.734;8.490;2022-08-20T08:18:30;1.67;;;1.58;;
45466;SDS011;31212;49.734;8.490;2022-08-20T08:21:03;1.23;;;0.85;;
45466;SDS011;31212;49.734;8.490;2022-08-20T08:23:29;1.02;;;0.73;;
45466;SDS011;31212;49.734;8.490;2022-08-20T08:25:56;1.15;;;0.77;;
45466;SDS011;31212;49.734;8.490;2022-08-20T08:28:23;1.65;;;1.05;;
45466;SDS011;31212;49.734;8.490;2022-08-20T08:30:53;1.75;;;0.77;;
45466;SDS011;31212;49.734;8.490;2022-08-20T08:33:21;2.38;;;1.20;;
45466;SDS011;31212;49.734;8.490;2022-08-20T08:35:57;1.10;;;0.57;;
45466;SDS011;31212;49.734;8.490;2022-08-20T08:38:26;1.25;;;1.00;;
45466;SDS011;31212;49.734;8.490;2022-08-20T08:40:55;3.95;;;0.98;;
45466;SDS011;31212;49.734;8.490;2022-08-20T08:43:24;1.58;;;0.85;;
45466;SDS011;31212;49.734;8.490;2022-08-20T08:45:55;3.08;;;1.38;;
45466;SDS011;31212;49.734;8.490;2022-08-20T08:48:30;3.75;;;1.27;;
45466;SDS011;31212;49.734;8.490;2022-08-20T08:50:59;0.85;;;0.77;;
45466;SDS011;31212;49.734;8.490;2022-08-20T08:53:33;1.17;;;0.80;;
45466;SDS011;31212;49.734;8.490;2022-08-20T08:56:03;1.42;;;1.05;;
45466;SDS011;31212;49.734;8.490;2022-08-20T08:58:31;1.33;;;0.90;;
45466;SDS011;31212;49.734;8.490;2022-08-20T09:01:01;1.45;;;0.98;;
45466;SDS011;31212;49.734;8.490;2022-08-20T09:03:34;1.48;;;0.80;;
45466;SDS011;31212;49.734;8.490;2022-08-20T09:06:04;1.05;;;0.70;;
45466;SDS011;31212;49.734;8.490;2022-08-20T09:08:34;1.23;;;0.80;;
45466;SDS011;31212;49.734;8.490;2022-08-20T09:11:08;3.65;;;0.95;;
45466;SDS011;31212;49.734;8.490;2022-08-20T09:13:35;1.45;;;0.90;;
45466;SDS011;31212;49.734;8.490;2022-08-20T09:16:03;0.93;;;0.80;;
45466;SDS011;31212;49.734;8.490;2022-08-20T09:18:30;1.30;;;0.90;;
45466;SDS011;31212;49.734;8.490;2022-08-20T09:20:56;0.95;;;0.65;;
45466;SDS011;31212;49.734;8.490;2022-08-20T09:23:23;0.70;;;0.70;;
45466;SDS011;31212;49.734;8.490;2022-08-20T09:25:49;0.55;;;0.50;;
45466;SDS011;31212;49.734;8.490;2022-08-20T09:28:16;1.25;;;0.80;;
45466;SDS011;31212;49.734;8.490;2022-08-20T09:30:43;2.55;;;0.82;;
45466;SDS011;31212;49.734;8.490;2022-08-20T09:33:11;1.02;;;0.90;;
45466;SDS011;31212;49.734;8.490;2022-08-20T09:35:37;3.38;;;0.90;;
45466;SDS011;31212;49.734;8.490;2022-08-20T09:38:04;0.95;;;0.70;;
45466;SDS011;31212;49.734;8.490;2022-08-20T09:40:31;1.15;;;0.77;;
45466;SDS011;31212;49.734;8.490;2022-08-20T09:42:58;1.63;;;0.68;;
45466;SDS011;31212;49.734;8.490;2022-08-20T09:45:25;1.77;;;0.98;;
45466;SDS011;31212;49.734;8.490;2022-08-20T09:47:51;1.38;;;1.08;;
45466;SDS011;31212;49.734;8.490;2022-08-20T09:50:19;0.98;;;0.82;;
45466;SDS011;31212;49.734;8.490;2022-08-20T09:52:46;4.00;;;1.08;;
45466;SDS011;31212;49.734;8.490;2022-08-20T09:55:17;1.20;;;0.60;;
45466;SDS011;31212;49.734;8.490;2022-08-20T09:57:46;1.17;;;0.82;;
45466;SDS011;31212;49.734;8.490;2022-08-20T10:00:15;0.77;;;0.77;;
45466;SDS011;31212;49.734;8.490;2022-08-20T10:02:42;1.38;;;0.80;;
45466;SDS011;31212;49.734;8.490;2022-08-20T10:05:09;1.55;;;0.55;;
45466;SDS011;31212;49.734;8.490;2022-08-20T10:07:37;0.70;;;0.70;;
45466;SDS011;31212;49.734;8.490;2022-08-20T10:10:06;2.40;;;1.00;;
45466;SDS011;31212;49.734;8.490;2022-08-20T10:12:35;1.80;;;1.05;;
45466;SDS011;31212;49.734;8.490;2022-08-20T10:15:02;1.30;;;0.80;;
45466;SDS011;31212;49.734;8.490;2022-08-20T10:17:29;0.77;;;0.77;;
45466;SDS011;31212;49.734;8.490;2022-08-20T10:19:56;0.80;;;0.80;;
45466;SDS011;31212;49.734;8.490;2022-08-20T10:22:22;0.85;;;0.82;;
45466;SDS011;31212;49.734;8.490;2022-08-20T10:24:50;0.80;;;0.65;;
45466;SDS011;31212;49.734;8.490;2022-08-20T10:27:17;0.95;;;0.70;;
45466;SDS011;31212;49.734;8.490;2022-08-20T10:29:43;0.73;;;0.65;;
45466;SDS011;31212;49.734;8.490;2022-08-20T10:32:10;0.93;;;0.63;;
45466;SDS011;31212;49.734;8.490;2022-08-20T10:34:40;1.23;;;0.40;;
45466;SDS011;31212;49.734;8.490;2022-08-20T10:37:08;0.40;;;0.40;;
45466;SDS011;31212;49.734;8.490;2022-08-20T10:39:35;0.20;;;0.20;;
45466;SDS011;31212;49.734;8.490;2022-08-20T10:42:03;0.20;;;0.20;;
45466;SDS011;31212;49.734;8.490;2022-08-20T10:44:29;0.10;;;0.10;;
45466;SDS011;31212;49.734;8.490;2022-08-20T10:46:56;0.15;;;0.15;;
45466;SDS011;31212;49.734;8.490;2022-08-20T10:49:22;0.20;;;0.20;;
45466;SDS011;31212;49.734;8.490;2022-08-20T10:51:49;0.17;;;0.17;;
45466;SDS011;31212;49.734;8.490;2022-08-20T10:54:15;0.10;;;0.10;;
45466;SDS011;31212;49.734;8.490;2022-08-20T10:56:42;0.20;;;0.20;;
45466;SDS011;31212;49.734;8.490;2022-08-20T10:59:10;0.00;;;0.00;;
45466;SDS011;31212;49.734;8.490;2022-08-20T11:01:36;0.05;;;0.05;;
45466;SDS011;31212;49.734;8.490;2022-08-20T11:04:03;0.50;;;0.20;;
45466;SDS011;31212;49.734;8.490;2022-08-20T11:06:30;0.25;;;0.17;;
45466;SDS011;31212;49.734;8.490;2022-08-20T11:08:56;0.00;;;0.00;;
45466;SDS011;31212;49.734;8.490;2022-08-20T11:11:22;0.10;;;0.10;;
45466;SDS011;31212;49.734;8.490;2022-08-20T11:13:49;0.08;;;0.03;;
45466;SDS011;31212;49.734;8.490;2022-08-20T11:16:17;0.00;;;0.00;;
45466;SDS011;31212;49.734;8.490;2022-08-20T11:18:43;0.10;;;0.10;;
45466;SDS011;31212;49.734;8.490;2022-08-20T11:21:10;0.10;;;0.10;;
45466;SDS011;31212;49.734;8.490;2022-08-20T11:23:36;0.40;;;0.20;;
45466;SDS011;31212;49.734;8.490;2022-08-20T11:26:03;0.20;;;0.20;;
45466;SDS011;31212;49.734;8.490;2022-08-20T11:28:29;0.10;;;0.10;;
45466;SDS011;31212;49.734;8.490;2022-08-20T11:30:57;0.20;;;0.20;;
45466;SDS011;31212;49.734;8.490;2022-08-20T11:33:25;0.10;;;0.10;;
45466;SDS011;31212;49.734;8.490;2022-08-20T11:35:52;0.10;;;0.10;;
45466;SDS011;31212;49.734;8.490;2022-08-20T11:38:19;0.73;;;0.15;;
45466;SDS011;31212;49.734;8.490;2022-08-20T11:40:45;0.10;;;0.10;;
45466;SDS011;31212;49.734;8.490;2022-08-20T11:43:12;0.10;;;0.10;;
45466;SDS011;31212;49.734;8.490;2022-08-20T11:45:38;0.10;;;0.10;;
45466;SDS011;31212;49.734;8.490;2022-08-20T11:48:05;0.20;;;0.20;;
45466;SDS011;31212;49.734;8.490;2022-08-20T11:50:32;0.20;;;0.20;;
45466;SDS011;31212;49.734;8.490;2022-08-20T11:52:59;0.03;;;0.03;;
45466;SDS011;31212;49.734;8.490;2022-08-20T11:55:25;0.15;;;0.15;;
45466;SDS011;31212;49.734;8.490;2022-08-20T11:57:52;0.22;;;0.20;;
45466;SDS011;31212;49.734;8.490;2022-08-20T12:00:19;0.10;;;0.10;;
45466;SDS011;31212;49.734;8.490;2022-08-20T12:02:48;0.30;;;0.20;;
45466;SDS011;31212;49.734;8.490;2022-08-20T12:05:16;0.17;;;0.17;;
45466;SDS011;31212;49.734;8.490;2022-08-20T12:07:45;0.60;;;0.20;;
45466;SDS011;31212;49.734;8.490;2022-08-20T12:10:11;0.22;;;0.13;;
45466;SDS011;31212;49.734;8.490;2022-08-20T12:12:39;1.83;;;0.40;;
45466;SDS011;31212;49.734;8.490;2022-08-20T12:15:06;1.17;;;0.32;;
45466;SDS011;31212;49.734;8.490;2022-08-20T12:17:35;0.10;;;0.10;;
45466;SDS011;31212;49.734;8.490;2022-08-20T12:20:03;0.20;;;0.20;;
45466;SDS011;31212;49.734;8.490;2022-08-20T12:22:32;0.32;;;0.32;;
45466;SDS011;31212;49.734;8.490;2022-08-20T12:25:00;0.15;;;0.10;;
45466;SDS011;31212;49.734;8.490;2022-08-20T12:27:28;0.20;;;0.20;;
45466;SDS011;31212;49.734;8.490;2022-08-20T12:29:56;0.25;;;0.20;;
45466;SDS011;31212;49.734;8.490;2022-08-20T12:32:25;0.20;;;0.20;;
45466;SDS011;31212;49.734;8.490;2022-08-20T12:34:53;0.10;;;0.10;;
45466;SDS011;31212;49.734;8.490;2022-08-20T12:37:21;0.15;;;0.15;;
45466;SDS011;31212;49.734;8.490;2022-08-20T12:39:50;0.45;;;0.22;;
45466;SDS011;31212;49.734;8.490;2022-08-20T12:42:19;0.20;;;0.20;;
45466;SDS011;31212;49.734;8.490;2022-08-20T12:44:46;0.35;;;0.17;;
45466;SDS011;31212;49.734;8.490;2022-08-20T12:47:14;0.63;;;0.30;;
45466;SDS011;31212;49.734;8.490;2022-08-20T12:49:43;0.28;;;0.20;;
45466;SDS011;31212;49.734;8.490;2022-08-20T12:52:12;2.60;;;0.20;;
45466;SDS011;31212;49.734;8.490;2022-08-20T12:54:40;0.15;;;0.15;;
45466;SDS011;31212;49.734;8.490;2022-08-20T12:57:11;0.08;;;0.08;;
45466;SDS011;31212;49.734;8.490;2022-08-20T12:59:40;0.20;;;0.20;;
45466;SDS011;31212;49.734;8.490;2022-08-20T13:02:06;0.20;;;0.20;;
45466;SDS011;31212;49.734;8.490;2022-08-20T13:04:33;0.20;;;0.20;;
45466;SDS011;31212;49.734;8.490;2022-08-20T13:06:59;1.65;;;0.30;;
45466;SDS011;31212;49.734;8.490;2022-08-20T13:09:27;0.38;;;0.32;;
45466;SDS011;31212;49.734;8.490;2022-08-20T13:11:53;0.15;;;0.15;;
45466;SDS011;31212;49.734;8.490;2022-08-20T13:14:20;0.90;;;0.43;;
45466;SDS011;31212;49.734;8.490;2022-08-20T13:16:53;0.50;;;0.30;;
45466;SDS011;31212;49.734;8.490;2022-08-20T13:19:21;0.45;;;0.40;;
45466;SDS011;31212;49.734;8.490;2022-08-20T13:21:47;0.40;;;0.38;;
45466;SDS011;31212;49.734;8.490;2022-08-20T13:24:14;0.43;;;0.30;;
45466;SDS011;31212;49.734;8.490;2022-08-20T13:26:41;0.32;;;0.30;;
45466;SDS011;31212;49.734;8.490;2022-08-20T13:29:07;0.93;;;0.52;;
45466;SDS011;31212;49.734;8.490;2022-08-20T13:31:34;0.57;;;0.40;;
45466;SDS011;31212;49.734;8.490;2022-08-20T13:34:02;1.63;;;0.43;;
45466;SDS011;31212;49.734;8.490;2022-08-20T13:36:28;1.90;;;0.43;;
45466;SDS011;31212;49.734;8.490;2022-08-20T13:38:55;0.43;;;0.40;;
45466;SDS011;31212;49.734;8.490;2022-08-20T13:41:21;0.73;;;0.50;;
45466;SDS011;31212;49.734;8.490;2022-08-20T13:43:48;0.40;;;0.40;;
45466;SDS011;31212;49.734;8.490;2022-08-20T13:46:14;1.00;;;0.65;;
45466;SDS011;31212;49.734;8.490;2022-08-20T13:48:41;0.30;;;0.30;;
45466;SDS011;31212;49.734;8.490;2022-08-20T13:51:09;1.00;;;0.65;;
45466;SDS011;31212;49.734;8.490;2022-08-20T13:53:35;1.67;;;0.82;;
45466;SDS011;31212;49.734;8.490;2022-08-20T13:56:02;0.60;;;0.50;;
45466;SDS011;31212;49.734;8.490;2022-08-20T13:58:29;1.08;;;0.63;;
45466;SDS011;31212;49.734;8.490;2022-08-20T14:00:56;0.88;;;0.70;;
45466;SDS011;31212;49.734;8.490;2022-08-20T14:03:22;0.88;;;0.50;;
45466;SDS011;31212;49.734;8.490;2022-08-20T14:05:49;0.80;;;0.68;;
45466;SDS011;31212;49.734;8.490;2022-08-20T14:08:17;1.42;;;0.65;;
45466;SDS011;31212;49.734;8.490;2022-08-20T14:10:47;0.67;;;0.50;;
45466;SDS011;31212;49.734;8.490;2022-08-20T14:13:14;2.42;;;0.82;;
45466;SDS011;31212;49.734;8.490;2022-08-20T14:15:41;1.92;;;0.52;;
45466;SDS011;31212;49.734;8.490;2022-08-20T14:18:08;1.42;;;0.60;;
45466;SDS011;31212;49.734;8.490;2022-08-20T14:20:35;0.52;;;0.43;;
45466;SDS011;31212;49.734;8.490;2022-08-20T14:23:02;0.77;;;0.47;;
45466;SDS011;31212;49.734;8.490;2022-08-20T14:25:30;1.13;;;0.65;;
45466;SDS011;31212;49.734;8.490;2022-08-20T14:27:57;1.33;;;1.00;;
45466;SDS011;31212;49.734;8.490;2022-08-20T14:30:25;0.90;;;0.60;;
45466;SDS011;31212;49.734;8.490;2022-08-20T14:32:53;1.15;;;0.80;;
45466;SDS011;31212;49.734;8.490;2022-08-20T14:35:21;0.70;;;0.70;;
45466;SDS011;31212;49.734;8.490;2022-08-20T14:37:48;0.45;;;0.40;;
45466;SDS011;31212;49.734;8.490;2022-08-20T14:40:17;1.92;;;1.15;;
45466;SDS011;31212;49.734;8.490;2022-08-20T14:42:47;0.50;;;0.50;;
45466;SDS011;31212;49.734;8.490;2022-08-20T14:45:14;2.95;;;0.73;;
45466;SDS011;31212;49.734;8.490;2022-08-20T14:47:43;0.75;;;0.40;;
45466;SDS011;31212;49.734;8.490;2022-08-20T14:50:25;0.68;;;0.50;;
45466;SDS011;31212;49.734;8.490;2022-08-20T14:52:53;1.15;;;0.68;;
45466;SDS011;31212;49.734;8.490;2022-08-20T14:55:22;0.95;;;0.40;;
45466;SDS011;31212;49.734;8.490;2022-08-20T14:57:51;0.68;;;0.50;;
45466;SDS011;31212;49.734;8.490;2022-08-20T15:00:19;0.38;;;0.38;;
45466;SDS011;31212;49.734;8.490;2022-08-20T15:02:47;0.98;;;0.60;;
45466;SDS011;31212;49.734;8.490;2022-08-20T15:05:14;1.25;;;0.73;;
45466;SDS011;31212;49.734;8.490;2022-08-20T15:07:42;1.05;;;0.70;;
45466;SDS011;31212;49.734;8.490;2022-08-20T15:10:11;1.13;;;0.60;;
45466;SDS011;31212;49.734;8.490;2022-08-20T15:12:39;0.90;;;0.60;;
45466;SDS011;31212;49.734;8.490;2022-08-20T15:15:09;0.88;;;0.50;;
45466;SDS011;31212;49.734;8.490;2022-08-20T15:17:37;0.52;;;0.35;;
45466;SDS011;31212;49.734;8.490;2022-08-20T15:20:04;1.10;;;0.40;;
45466;SDS011;31212;49.734;8.490;2022-08-20T15:22:36;2.95;;;0.43;;
45466;SDS011;31212;49.734;8.490;2022-08-20T15:25:03;0.65;;;0.45;;
45466;SDS011;31212;49.734;8.490;2022-08-20T15:27:31;0.82;;;0.70;;
45466;SDS011;31212;49.734;8.490;2022-08-20T15:29:58;0.88;;;0.60;;
45466;SDS011;31212;49.734;8.490;2022-08-20T15:32:26;0.70;;;0.45;;
45466;SDS011;31212;49.734;8.490;2022-08-20T15:34:52;1.15;;;0.50;;
45466;SDS011;31212;49.734;8.490;2022-08-20T15:37:20;0.70;;;0.70;;
45466;SDS011;31212;49.734;8.490;2022-08-20T15:39:48;0.50;;;0.50;;
45466;SDS011;31212;49.734;8.490;2022-08-20T15:42:15;0.77;;;0.55;;
45466;SDS011;31212;49.734;8.490;2022-08-20T15:44:42;1.35;;;0.60;;
45466;SDS011;31212;49.734;8.490;2022-08-20T15:47:17;1.88;;;0.60;;
45466;SDS011;31212;49.734;8.490;2022-08-20T15:49:48;2.28;;;1.00;;
45466;SDS011;31212;49.734;8.490;2022-08-20T15:52:17;0.65;;;0.65;;
45466;SDS011;31212;49.734;8.490;2022-08-20T15:54:44;3.35;;;0.80;;
45466;SDS011;31212;49.734;8.490;2022-08-20T15:57:13;4.07;;;0.60;;
45466;SDS011;31212;49.734;8.490;2022-08-20T16:00:03;1.30;;;0.60;;
45466;SDS011;31212;49.734;8.490;2022-08-20T16:02:47;0.98;;;0.70;;
45466;SDS011;31212;49.734;8.490;2022-08-20T16:05:30;2.35;;;0.75;;
45466;SDS011;31212;49.734;8.490;2022-08-20T16:08:06;1.30;;;0.68;;
45466;SDS011;31212;49.734;8.490;2022-08-20T16:10:41;1.80;;;0.75;;
45466;SDS011;31212;49.734;8.490;2022-08-20T16:13:17;1.13;;;0.65;;
45466;SDS011;31212;49.734;8.490;2022-08-20T16:15:52;0.35;;;0.35;;
45466;SDS011;31212;49.734;8.490;2022-08-20T16:18:23;0.50;;;0.43;;
45466;SDS011;31212;49.734;8.490;2022-08-20T16:20:54;1.73;;;0.77;;
45466;SDS011;31212;49.734;8.490;2022-08-20T16:23:22;1.17;;;0.80;;
45466;SDS011;31212;49.734;8.490;2022-08-20T16:25:57;1.05;;;0.50;;
45466;SDS011;31212;49.734;8.490;2022-08-20T16:28:33;1.65;;;0.68;;
45466;SDS011;31212;49.734;8.490;2022-08-20T16:31:11;1.48;;;0.85;;
45466;SDS011;31212;49.734;8.490;2022-08-20T16:36:17;1.33;;;0.80;;
45466;SDS011;31212;49.734;8.490;2022-08-20T16:38:49;1.13;;;0.70;;
45466;SDS011;31212;49.734;8.490;2022-08-20T16:41:20;0.98;;;0.50;;
45466;SDS011;31212;49.734;8.490;2022-08-20T16:43:52;1.30;;;0.70;;
45466;SDS011;31212;49.734;8.490;2022-08-20T16:48:51;0.50;;;0.50;;
45466;SDS011;31212;49.734;8.490;2022-08-20T16:51:26;0.40;;;0.40;;
45466;SDS011;31212;49.734;8.490;2022-08-20T16:53:58;0.88;;;0.70;;
45466;SDS011;31212;49.734;8.490;2022-08-20T16:56:32;0.70;;;0.50;;
45466;SDS011;31212;49.734;8.490;2022-08-20T16:59:03;0.73;;;0.73;;
45466;SDS011;31212;49.734;8.490;2022-08-20T17:01:31;0.65;;;0.60;;
45466;SDS011;31212;49.734;8.490;2022-08-20T17:03:57;0.75;;;0.75;;
45466;SDS011;31212;49.734;8.490;2022-08-20T17:06:27;1.40;;;0.60;;
45466;SDS011;31212;49.734;8.490;2022-08-20T17:09:00;0.90;;;0.60;;
45466;SDS011;31212;49.734;8.490;2022-08-20T17:11:29;1.45;;;0.73;;
45466;SDS011;31212;49.734;8.490;2022-08-20T17:14:01;0.88;;;0.57;;
45466;SDS011;31212;49.734;8.490;2022-08-20T17:16:31;1.13;;;0.70;;
45466;SDS011;31212;49.734;8.490;2022-08-20T17:19:05;0.80;;;0.80;;
45466;SDS011;31212;49.734;8.490;2022-08-20T17:21:36;1.27;;;0.82;;
45466;SDS011;31212;49.734;8.490;2022-08-20T17:24:05;3.22;;;1.38;;
45466;SDS011;31212;49.734;8.490;2022-08-20T17:26:39;0.50;;;0.50;;
45466;SDS011;31212;49.734;8.490;2022-08-20T17:29:10;2.97;;;0.95;;
45466;SDS011;31212;49.734;8.490;2022-08-20T17:31:39;1.08;;;0.70;;
45466;SDS011;31212;49.734;8.490;2022-08-20T17:34:14;1.07;;;0.83;;